Time;durP1;ratioP1;P1;durP2;ratioP2;P2;SDS_P1;SDS_P2;PMS_P1;PMS_P2;Temp;Humidity;BMP_temperature;BMP_pressure;BME280_temperature;BME280_humidity;BME280_pressure;Samples;Min_cycle;Max_cycle;Signal;HPM_P1;HPM_P2
2022/08/20 00:01:22;;;;;;;46.78;42.85;;;;;;;20.46;100.00;100551.75;4984066;28;20066;-88
2022/08/20 00:03:50;;;;;;;43.33;39.40;;;;;;;20.42;100.00;100554.16;4984732;28;20487;-86
2022/08/20 00:06:24;;;;;;;42.85;38.75;;;;;;;20.63;100.00;100557.63;4994596;28;20046;-86
2022/08/20 00:08:59;;;;;;;44.70;41.00;;;;;;;20.70;100.00;100560.84;4984281;28;20062;-88
2022/08/20 00:11:35;;;;;;;39.28;36.03;;;;;;;20.85;100.00;100561.84;4990885;28;20078;-84
2022/08/20 00:14:11;;;;;;;47.78;44.10;;;;;;;20.82;100.00;100560.53;4993275;28;20050;-86
2022/08/20 00:16:41;;;;;;;46.13;42.40;;;;;;;19.91;100.00;100567.78;4990044;28;20133;-84
2022/08/20 00:19:12;;;;;;;44.65;40.90;;;;;;;19.89;100.00;100559.97;4992934;28;20065;-85
2022/08/20 00:21:40;;;;;;;47.15;42.78;;;;;;;20.42;100.00;100562.25;4992540;28;20038;-85
2022/08/20 00:24:07;;;;;;;46.42;42.25;;;;;;;20.68;100.00;100567.59;4994415;28;20144;-85
2022/08/20 00:26:47;;;;;;;44.35;40.50;;;;;;;20.73;100.00;100564.88;4984090;28;20475;-87
2022/08/20 00:29:18;;;;;;;50.58;46.05;;;;;;;20.75;100.00;100551.91;4993345;28;20038;-86
2022/08/20 00:31:46;;;;;;;43.03;39.15;;;;;;;20.25;100.00;100559.91;4994816;28;20042;-89
2022/08/20 00:34:15;;;;;;;47.70;43.60;;;;;;;20.09;100.00;100553.75;4977792;28;20483;-88
2022/08/20 00:36:49;;;;;;;44.72;40.60;;;;;;;20.14;100.00;100561.00;4979439;28;20046;-85
2022/08/20 00:39:29;;;;;;;50.05;45.78;;;;;;;20.47;100.00;100556.84;4987236;28;20058;-86
2022/08/20 00:41:56;;;;;;;45.58;41.83;;;;;;;20.55;100.00;100556.31;4991765;28;20047;-87
2022/08/20 00:44:25;;;;;;;43.88;40.03;;;;;;;20.35;100.00;100559.06;4983251;28;20047;-88
2022/08/20 00:46:54;;;;;;;44.58;40.83;;;;;;;20.41;100.00;100560.66;4979035;28;20055;-85
2022/08/20 00:49:24;;;;;;;41.80;38.35;;;;;;;20.46;100.00;100557.94;4979014;28;20505;-89
2022/08/20 00:51:57;;;;;;;45.35;41.67;;;;;;;20.60;100.00;100550.09;4989295;28;20134;-85
2022/08/20 00:54:30;;;;;;;42.83;39.42;;;;;;;20.53;100.00;100545.00;4975229;28;20047;-89
2022/08/20 00:57:08;;;;;;;42.38;38.55;;;;;;;20.32;100.00;100551.50;4994727;28;20062;-86
2022/08/20 00:59:38;;;;;;;46.33;42.50;;;;;;;20.41;100.00;100551.75;4986937;28;20058;-86
2022/08/20 01:02:09;;;;;;;46.05;42.33;;;;;;;20.42;100.00;100556.06;4982534;28;20070;-86
2022/08/20 01:04:37;;;;;;;42.30;38.33;;;;;;;19.81;100.00;100557.00;4979205;28;20054;-86
2022/08/20 01:07:07;;;;;;;46.42;42.28;;;;;;;20.08;100.00;100556.69;4990383;28;20046;-84
2022/08/20 01:09:38;;;;;;;48.47;44.42;;;;;;;20.27;100.00;100548.81;4993089;28;20065;-84
2022/08/20 01:12:22;;;;;;;46.33;42.45;;;;;;;20.17;100.00;100556.94;4988067;28;20404;-85
2022/08/20 01:15:16;;;;;;;48.50;44.20;;;;;;;20.29;100.00;100562.84;4979975;28;20061;-85
2022/08/20 01:18:05;;;;;;;40.70;37.25;;;;;;;20.33;100.00;100548.56;4993396;28;20093;-85
2022/08/20 01:20:44;;;;;;;44.88;41.35;;;;;;;20.32;100.00;100551.50;4986265;28;20054;-86
2022/08/20 01:23:29;;;;;;;39.55;35.67;;;;;;;20.19;100.00;100554.81;4990630;28;20046;-87
2022/08/20 01:26:21;;;;;;;40.28;36.58;;;;;;;20.13;100.00;100545.91;4992559;28;20144;-88
2022/08/20 01:28:57;;;;;;;45.13;41.40;;;;;;;20.20;100.00;100538.34;4998079;28;20054;-85
2022/08/20 01:31:41;;;;;;;50.70;46.45;;;;;;;19.53;100.00;100556.47;4997982;28;20067;-88
2022/08/20 01:34:10;;;;;;;43.80;40.03;;;;;;;19.75;100.00;100548.13;4998166;28;20047;-86
2022/08/20 01:36:42;;;;;;;44.13;40.22;;;;;;;19.22;100.00;100551.06;4997897;28;20113;-86
2022/08/20 01:39:15;;;;;;;44.13;39.97;;;;;;;19.81;100.00;100540.84;4997976;28;20061;-84
2022/08/20 01:42:03;;;;;;;40.45;36.75;;;;;;;19.84;100.00;100540.31;4991634;28;20411;-85
2022/08/20 01:44:38;;;;;;;41.60;37.72;;;;;;;20.14;100.00;100540.22;4997754;28;20071;-85
2022/08/20 01:47:22;;;;;;;45.10;41.17;;;;;;;20.21;100.00;100539.97;4997761;28;20046;-85
2022/08/20 01:49:53;;;;;;;42.72;38.83;;;;;;;20.31;100.00;100534.53;4997687;28;20046;-88
2022/08/20 01:52:32;;;;;;;40.95;37.28;;;;;;;20.34;100.00;100539.38;4980701;28;20047;-86
2022/08/20 01:54:59;;;;;;;40.40;37.00;;;;;;;20.34;100.00;100530.47;4982321;28;20054;-87
2022/08/20 01:57:30;;;;;;;38.95;35.47;;;;;;;20.38;100.00;100531.53;4980037;28;20063;-83
2022/08/20 02:02:46;;;;;;;40.78;37.15;;;;;;;19.95;100.00;100528.44;5055265;23;20046;-89
2022/08/20 02:05:13;;;;;;;43.53;39.92;;;;;;;20.14;100.00;100529.44;5016581;28;20470;-87
2022/08/20 02:07:40;;;;;;;42.28;38.97;;;;;;;20.20;100.00;100532.94;5014441;28;20054;-86
2022/08/20 02:10:11;;;;;;;40.22;36.75;;;;;;;20.27;100.00;100538.03;5016755;28;20505;-85
2022/08/20 02:12:41;;;;;;;42.55;38.92;;;;;;;20.11;100.00;100535.38;5016008;28;20061;-85
2022/08/20 02:15:12;;;;;;;41.35;38.05;;;;;;;20.06;100.00;100539.97;5015698;28;20133;-86
2022/08/20 02:17:40;;;;;;;40.90;37.20;;;;;;;20.10;100.00;100544.56;5016277;28;20160;-89
2022/08/20 02:20:13;;;;;;;39.78;35.83;;;;;;;20.00;100.00;100543.78;5016750;28;20053;-86
2022/08/20 02:22:48;;;;;;;43.63;39.75;;;;;;;19.90;100.00;100531.94;5015997;28;20072;-87
2022/08/20 02:25:17;;;;;;;42.22;38.42;;;;;;;19.63;100.00;100537.59;5015027;28;20136;-87
2022/08/20 02:27:48;;;;;;;41.75;37.97;;;;;;;19.39;100.00;100539.22;5015330;28;20406;-86
2022/08/20 02:30:19;;;;;;;49.22;44.97;;;;;;;19.61;100.00;100533.56;5015079;28;20053;-87
2022/08/20 02:32:46;;;;;;;44.63;40.30;;;;;;;19.79;100.00;100526.81;5015670;28;20450;-87
2022/08/20 02:35:14;;;;;;;45.70;41.60;;;;;;;19.92;100.00;100530.88;5016188;28;20482;-85
2022/08/20 02:37:45;;;;;;;45.45;41.58;;;;;;;19.82;100.00;100529.00;5016176;28;20168;-87
2022/08/20 02:40:16;;;;;;;41.00;37.28;;;;;;;19.15;100.00;100531.66;5015391;28;20046;-89
2022/08/20 02:42:52;;;;;;;46.70;42.25;;;;;;;19.33;100.00;100527.63;5013986;28;20042;-89
2022/08/20 02:45:21;;;;;;;44.97;40.95;;;;;;;20.12;100.00;100507.38;5015469;28;20517;-87
2022/08/20 02:47:49;;;;;;;42.78;39.28;;;;;;;20.36;100.00;100510.25;5015605;28;20049;-89
2022/08/20 02:50:19;;;;;;;43.97;40.03;;;;;;;20.42;100.00;100504.81;5015679;28;20049;-88
2022/08/20 02:52:46;;;;;;;48.22;44.17;;;;;;;19.94;100.00;100515.22;5015273;28;20049;-89
2022/08/20 02:55:23;;;;;;;48.13;44.30;;;;;;;19.89;100.00;100503.38;5015136;28;20394;-87
2022/08/20 02:58:11;;;;;;;44.60;40.65;;;;;;;19.74;100.00;100511.47;5016069;28;20145;-89
2022/08/20 03:00:51;;;;;;;45.63;41.00;;;;;;;19.72;100.00;100510.13;5012784;28;20058;-86
2022/08/20 03:03:21;;;;;;;44.17;40.10;;;;;;;19.63;100.00;100518.72;4976621;28;20046;-86
2022/08/20 03:06:08;;;;;;;46.47;42.10;;;;;;;19.72;100.00;100508.25;4971349;28;20065;-87
2022/08/20 03:08:51;;;;;;;44.00;40.08;;;;;;;19.72;100.00;100519.03;4976695;28;20460;-88
2022/08/20 03:11:20;;;;;;;;;;;;;;;20.09;100.00;100509.78;4962216;28;20122;-84
2022/08/20 03:13:56;;;;;;;43.22;39.45;;;;;;;20.12;100.00;100520.00;4965512;28;20009;-88
2022/08/20 03:16:36;;;;;;;43.42;39.75;;;;;;;20.10;100.00;100517.59;4970289;28;20055;-86
2022/08/20 03:19:12;;;;;;;43.10;39.40;;;;;;;20.01;100.00;100523.84;4977013;28;20113;-86
2022/08/20 03:21:40;;;;;;;41.85;38.33;;;;;;;19.95;100.00;100520.34;4976976;28;20058;-86
2022/08/20 03:24:22;;;;;;;41.65;37.75;;;;;;;19.37;100.00;100527.91;4975550;28;20047;-88
2022/08/20 03:27:12;;;;;;;44.05;40.15;;;;;;;19.08;100.00;100523.03;4967764;28;20475;-84
2022/08/20 03:29:41;;;;;;;44.20;40.20;;;;;;;19.49;100.00;100530.34;4973956;28;20054;-84
2022/08/20 03:32:34;;;;;;;42.10;38.60;;;;;;;19.75;100.00;100528.44;4976594;28;20062;-86
2022/08/20 03:35:19;;;;;;;42.55;39.05;;;;;;;19.60;100.00;100529.25;4976939;28;20050;-86
2022/08/20 03:38:12;;;;;;;41.65;37.45;;;;;;;19.05;100.00;100534.31;4965934;28;20460;-86
2022/08/20 03:40:39;;;;;;;42.92;39.25;;;;;;;19.23;100.00;100536.50;4975909;28;20054;-86
2022/08/20 03:43:18;;;;;;;42.33;38.80;;;;;;;19.14;100.00;100548.88;4976298;28;20047;-86
2022/08/20 03:45:51;;;;;;;42.03;38.28;;;;;;;19.57;100.00;100540.56;4957150;28;20051;-84
2022/08/20 03:48:34;;;;;;;42.03;38.17;;;;;;;19.46;100.00;100542.47;4975652;28;20051;-88
2022/08/20 03:51:01;;;;;;;;;;;;;;;19.83;100.00;100536.00;4976814;28;20050;-85
2022/08/20 03:53:39;;;;;;;41.10;37.60;;;;;;;19.85;100.00;100548.13;4971291;28;19922;-86
2022/08/20 03:56:12;;;;;;;41.72;38.03;;;;;;;19.86;100.00;100541.66;4970209;28;20053;-86
2022/08/20 03:58:44;;;;;;;41.05;37.42;;;;;;;19.87;100.00;100545.94;4968950;28;20133;-84
2022/08/20 04:01:16;;;;;;;40.13;36.63;;;;;;;19.82;100.00;100543.28;4958922;28;20047;-83
2022/08/20 04:03:45;;;;;;;39.35;36.00;;;;;;;19.86;100.00;100551.63;5007773;28;20462;-88
2022/08/20 04:06:33;;;;;;;38.95;35.75;;;;;;;19.67;100.00;100546.78;5012617;28;20402;-86
2022/08/20 04:09:08;;;;;;;42.50;39.05;;;;;;;19.55;100.00;100553.50;5013758;28;20054;-86
2022/08/20 04:11:36;;;;;;;39.63;36.33;;;;;;;20.03;100.00;100543.22;5011788;28;20482;-84
2022/08/20 04:14:17;;;;;;;41.20;37.33;;;;;;;20.21;100.00;100547.22;5013370;28;20429;-88
2022/08/20 04:16:51;;;;;;;42.33;38.50;;;;;;;20.21;100.00;100553.44;5007203;28;21099;-85
2022/08/20 04:19:24;;;;;;;42.42;38.55;;;;;;;20.61;100.00;100545.53;5014400;28;20482;-84
2022/08/20 04:22:01;;;;;;;40.33;36.45;;;;;;;20.59;100.00;100541.19;5014368;28;20046;-85
2022/08/20 04:24:37;;;;;;;42.38;38.63;;;;;;;20.69;100.00;100553.00;4995303;28;20475;-86
2022/08/20 04:27:13;;;;;;;40.85;37.35;;;;;;;20.91;100.00;100555.31;5005793;28;20053;-86
2022/08/20 04:30:06;;;;;;;40.03;36.38;;;;;;;20.80;100.00;100554.59;4999916;28;20101;-85
2022/08/20 04:32:42;;;;;;;41.75;38.08;;;;;;;21.05;100.00;100565.22;5010592;28;20068;-86
2022/08/20 04:35:13;;;;;;;40.08;36.63;;;;;;;21.15;100.00;100558.16;5015213;28;20050;-86
2022/08/20 04:37:46;;;;;;;42.67;38.90;;;;;;;21.30;100.00;100559.94;5008127;28;20065;-84
2022/08/20 04:43:06;;;;;;;40.20;37.03;;;;;;;21.40;100.00;100554.50;5012148;28;20073;-88
2022/08/20 04:45:34;;;;;;;40.90;37.33;;;;;;;21.45;100.00;100571.50;5014329;28;20497;-85
2022/08/20 04:48:06;;;;;;;38.72;35.38;;;;;;;21.56;100.00;100566.81;5009628;28;20050;-83
2022/08/20 04:50:45;;;;;;;;;;;;;;;21.59;100.00;100555.44;5006435;28;20056;-85
2022/08/20 04:53:35;;;;;;;37.35;34.35;;;;;;;21.48;100.00;100567.41;5004721;28;19921;-85
2022/08/20 04:56:03;;;;;;;38.42;34.80;;;;;;;21.66;100.00;100574.81;5011089;28;20483;-84
2022/08/20 04:58:34;;;;;;;38.40;35.22;;;;;;;21.65;100.00;100572.41;5009688;28;20042;-84
2022/08/20 05:01:09;;;;;;;40.60;35.67;;;;;;;21.78;100.00;100570.94;5008698;28;20438;-87
2022/08/20 05:03:38;;;;;;;37.35;34.22;;;;;;;22.10;100.00;100568.47;5013884;28;20403;-85
2022/08/20 05:06:08;;;;;;;38.28;34.97;;;;;;;22.30;100.00;100566.66;5012943;28;20073;-87
2022/08/20 05:08:37;;;;;;;36.63;33.70;;;;;;;22.35;100.00;100575.53;5012720;28;20042;-83
2022/08/20 05:11:08;;;;;;;39.35;35.78;;;;;;;21.89;100.00;100567.88;5013686;28;20061;-85
2022/08/20 05:13:38;;;;;;;37.33;33.95;;;;;;;22.33;100.00;100568.78;5013513;28;20042;-86
2022/08/20 05:16:05;;;;;;;39.88;36.10;;;;;;;22.70;100.00;100564.56;5012476;28;20057;-84
2022/08/20 05:18:35;;;;;;;37.90;34.90;;;;;;;22.69;100.00;100563.75;5010281;28;20405;-83
2022/08/20 05:21:09;;;;;;;37.13;33.72;;;;;;;22.84;100.00;100558.16;5013191;28;20057;-83
2022/08/20 05:23:44;;;;;;;35.85;32.80;;;;;;;22.96;100.00;100567.75;5002207;28;20054;-85
2022/08/20 05:26:14;;;;;;;35.70;32.67;;;;;;;22.76;100.00;100558.00;5012632;28;20086;-83
2022/08/20 05:28:41;;;;;;;36.15;32.95;;;;;;;23.20;100.00;100564.97;5010881;28;20041;-84
2022/08/20 05:31:17;;;;;;;36.45;32.92;;;;;;;23.25;100.00;100554.88;5011964;28;20045;-86
2022/08/20 05:33:51;;;;;;;35.38;32.42;;;;;;;23.47;100.00;100554.25;5013016;28;20493;-85
2022/08/20 05:36:51;;;;;;;35.05;32.08;;;;;;;23.65;100.00;100551.81;5013432;28;20082;-86
2022/08/20 05:39:20;;;;;;;34.72;31.75;;;;;;;23.69;100.00;100555.50;4996472;28;20054;-84
2022/08/20 05:41:50;;;;;;;35.17;32.08;;;;;;;23.73;100.00;100545.72;5009177;28;20049;-86
2022/08/20 05:44:25;;;;;;;36.05;32.90;;;;;;;24.08;100.00;100552.41;5005891;28;20050;-85
2022/08/20 05:46:58;;;;;;;34.88;31.90;;;;;;;24.26;100.00;100545.28;5009562;28;20046;-86
2022/08/20 05:49:26;;;;;;;33.65;30.67;;;;;;;24.27;100.00;100538.75;5012132;28;20049;-86
2022/08/20 05:52:11;;;;;;;35.22;32.13;;;;;;;24.42;100.00;100545.81;4997458;28;20050;-87
2022/08/20 05:54:49;;;;;;;32.83;30.08;;;;;;;24.40;100.00;100548.00;5008965;28;20054;-86
2022/08/20 05:57:19;;;;;;;34.33;31.45;;;;;;;24.45;100.00;100547.94;5000266;28;20045;-85
2022/08/20 05:59:47;;;;;;;49.45;45.92;;;;;;;24.77;100.00;100543.44;4995494;28;20057;-84
2022/08/20 06:04:58;;;;;;;34.63;31.02;;;;;;;24.96;100.00;100532.41;5014024;28;20065;-86
2022/08/20 06:07:28;;;;;;;35.35;32.53;;;;;;;25.31;100.00;100538.97;5014740;28;20046;-84
2022/08/20 06:09:55;;;;;;;35.53;32.20;;;;;;;25.31;100.00;100528.09;5013710;28;20201;-83
2022/08/20 06:12:22;;;;;;;33.40;30.83;;;;;;;25.58;100.00;100527.94;5010637;28;20136;-87
2022/08/20 06:14:49;;;;;;;35.72;32.70;;;;;;;25.74;100.00;100539.22;5010243;28;20061;-84
2022/08/20 06:17:18;;;;;;;38.13;33.95;;;;;;;25.83;100.00;100530.34;5004353;28;20053;-83
2022/08/20 06:19:46;;;;;;;40.00;35.88;;;;;;;26.30;100.00;100526.06;5009891;28;20077;-84
2022/08/20 06:22:15;;;;;;;41.35;37.35;;;;;;;26.51;100.00;100526.31;5011188;28;20064;-84
2022/08/20 06:24:52;;;;;;;49.05;44.50;;;;;;;26.92;100.00;100530.50;5004220;28;20046;-83
2022/08/20 06:27:22;;;;;;;40.72;36.90;;;;;;;27.12;100.00;100540.75;5008198;28;20116;-85
2022/08/20 06:29:50;;;;;;;31.50;27.80;;;;;;;27.41;100.00;100539.31;5008863;28;20407;-85
2022/08/20 06:32:18;;;;;;;30.42;27.40;;;;;;;27.72;100.00;100532.84;5009957;28;20054;-86
2022/08/20 06:34:45;;;;;;;28.67;26.15;;;;;;;27.89;100.00;100534.72;5009115;28;20050;-83
2022/08/20 06:37:16;;;;;;;30.20;27.30;;;;;;;28.31;100.00;100530.19;5010630;28;20425;-86
2022/08/20 06:39:48;;;;;;;28.15;25.80;;;;;;;28.31;100.00;100532.91;5011753;28;20057;-84
2022/08/20 06:42:21;;;;;;;31.95;28.73;;;;;;;28.48;100.00;100532.84;5010867;28;20053;-87
2022/08/20 06:44:52;;;;;;;29.60;27.27;;;;;;;28.50;100.00;100529.78;5010314;28;20050;-87
2022/08/20 06:47:26;;;;;;;29.85;26.92;;;;;;;28.71;100.00;100529.81;5010372;28;20237;-88
2022/08/20 06:49:53;;;;;;;28.52;26.02;;;;;;;28.78;100.00;100530.09;5010125;28;20548;-84
2022/08/20 06:52:22;;;;;;;30.35;27.45;;;;;;;29.07;100.00;100528.41;5012229;28;20049;-85
2022/08/20 06:54:53;;;;;;;28.63;26.20;;;;;;;29.12;100.00;100528.22;5011664;28;20045;-85
2022/08/20 06:57:25;;;;;;;28.80;26.50;;;;;;;29.28;100.00;100531.13;4998053;28;20525;-87
2022/08/20 07:00:00;;;;;;;29.73;27.05;;;;;;;29.35;100.00;100529.47;5010945;28;20064;-83
2022/08/20 07:02:27;;;;;;;29.48;27.00;;;;;;;29.49;100.00;100526.41;5008873;28;20136;-86
2022/08/20 07:04:56;;;;;;;31.35;28.13;;;;;;;29.47;100.00;100527.88;5009743;28;20054;-84
2022/08/20 07:07:23;;;;;;;31.77;29.20;;;;;;;29.52;100.00;100523.00;5008566;28;20050;-83
2022/08/20 07:09:58;;;;;;;29.25;26.55;;;;;;;29.60;100.00;100524.84;5010830;28;20056;-84
2022/08/20 07:12:27;;;;;;;29.48;27.10;;;;;;;29.82;100.00;100515.44;5013107;28;20070;-84
2022/08/20 07:14:54;;;;;;;30.33;27.13;;;;;;;29.98;100.00;100510.06;5011975;28;20050;-82
2022/08/20 07:17:21;;;;;;;28.38;25.88;;;;;;;30.14;100.00;100518.44;5003960;28;20153;-84
2022/08/20 07:19:48;;;;;;;29.45;26.98;;;;;;;30.24;100.00;100515.25;5012057;28;20046;-84
2022/08/20 07:22:22;;;;;;;33.45;30.45;;;;;;;30.42;100.00;100507.56;4998968;28;20479;-82
2022/08/20 07:24:52;;;;;;;35.10;32.30;;;;;;;30.45;99.18;100511.56;5007393;28;20061;-86
2022/08/20 07:27:22;;;;;;;31.85;29.10;;;;;;;30.46;94.76;100504.94;5010108;28;20056;-83
2022/08/20 07:32:35;;;;;;;33.63;30.38;;;;;;;30.47;96.03;100504.63;5006574;28;20107;-83
2022/08/20 07:35:06;;;;;;;35.28;32.28;;;;;;;30.57;91.24;100511.56;5001601;28;20046;-82
2022/08/20 07:37:40;;;;;;;34.10;31.35;;;;;;;30.79;89.12;100504.78;5013384;28;20045;-83
2022/08/20 07:40:12;;;;;;;30.90;28.40;;;;;;;30.83;84.07;100504.88;5010491;28;20461;-84
2022/08/20 07:42:39;;;;;;;34.38;31.08;;;;;;;30.83;90.08;100502.91;5011859;28;20061;-87
2022/08/20 07:45:07;;;;;;;35.35;31.50;;;;;;;30.55;98.09;100506.41;5008785;28;20054;-86
2022/08/20 07:47:34;;;;;;;51.83;34.03;;;;;;;30.94;93.96;100501.28;5007863;28;20055;-85
2022/08/20 07:50:01;;;;;;;56.58;34.22;;;;;;;31.17;89.48;100503.50;5007922;28;20050;-85
2022/08/20 07:52:28;;;;;;;34.30;31.33;;;;;;;31.22;83.76;100497.72;5007943;28;20046;-85
2022/08/20 07:54:56;;;;;;;33.88;30.90;;;;;;;31.17;80.23;100498.78;5006195;28;20066;-85
2022/08/20 07:57:33;;;;;;;50.58;32.20;;;;;;;31.42;83.07;100498.69;5007992;28;20497;-84
2022/08/20 08:00:02;;;;;;;32.00;28.65;;;;;;;31.64;77.54;100494.53;5013433;28;20058;-82
2022/08/20 08:02:29;;;;;;;36.35;30.67;;;;;;;31.41;82.93;100497.91;5014235;28;20430;-83
2022/08/20 08:04:56;;;;;;;30.42;27.83;;;;;;;31.38;76.56;100489.56;5012645;28;20061;-85
2022/08/20 08:07:25;;;;;;;104.10;33.40;;;;;;;31.88;75.83;100482.56;5011155;28;20048;-86
2022/08/20 08:09:54;;;;;;;29.58;26.65;;;;;;;31.97;72.39;100485.16;5000093;28;20051;-84
2022/08/20 08:12:22;;;;;;;31.88;29.25;;;;;;;31.96;79.50;100475.34;5014786;28;20064;-82
2022/08/20 08:15:00;;;;;;;31.75;28.60;;;;;;;32.32;74.84;100469.50;5012518;28;20057;-85
2022/08/20 08:17:30;;;;;;;33.70;31.10;;;;;;;32.32;64.27;100472.25;5006563;28;20043;-85
2022/08/20 08:20:00;;;;;;;32.05;29.30;;;;;;;31.84;71.17;100473.47;4996028;28;20061;-85
2022/08/20 08:22:28;;;;;;;33.75;30.77;;;;;;;31.91;62.45;100473.66;5009178;28;20127;-82
2022/08/20 08:24:58;;;;;;;31.40;28.48;;;;;;;32.37;67.11;100469.19;5007818;28;20060;-84
2022/08/20 08:27:28;;;;;;;31.00;28.35;;;;;;;32.46;61.83;100457.25;5009864;28;20049;-81
2022/08/20 08:30:12;;;;;;;33.80;31.02;;;;;;;32.63;59.82;100467.81;5006275;28;21007;-83
2022/08/20 08:35:31;;;;;;;33.35;30.33;;;;;;;32.07;73.55;100452.44;5008531;28;20084;-84
2022/08/20 08:38:06;;;;;;;32.45;29.60;;;;;;;31.69;80.01;100447.63;5004471;28;20077;-83
2022/08/20 08:40:34;;;;;;;32.88;29.95;;;;;;;31.84;79.71;100437.78;5011565;28;20041;-83
2022/08/20 08:43:06;;;;;;;34.65;31.85;;;;;;;32.80;64.14;100428.91;5012141;28;20115;-85
2022/08/20 08:45:44;;;;;;;33.75;30.77;;;;;;;32.89;61.72;100427.84;5011109;28;20371;-85
2022/08/20 08:48:15;;;;;;;34.33;31.20;;;;;;;32.74;64.51;100424.03;5008660;28;20441;-85
2022/08/20 08:50:46;;;;;;;33.45;30.73;;;;;;;32.26;75.63;100423.44;5007307;28;20050;-83
2022/08/20 08:53:19;;;;;;;33.27;30.30;;;;;;;32.92;64.24;100429.88;5012203;28;20423;-85
2022/08/20 08:55:46;;;;;;;32.58;29.92;;;;;;;33.28;58.84;100423.09;5007976;28;20387;-82
2022/08/20 08:58:13;;;;;;;32.63;29.77;;;;;;;33.38;56.44;100433.50;5007302;28;20129;-81
2022/08/20 09:00:46;;;;;;;30.65;27.95;;;;;;;33.71;56.90;100432.09;5010383;28;20390;-85
2022/08/20 09:03:25;;;;;;;31.35;28.42;;;;;;;33.27;54.81;100429.75;5006535;28;20062;-88
2022/08/20 09:06:01;;;;;;;32.05;29.40;;;;;;;33.84;55.88;100421.66;5008392;28;20061;-85
2022/08/20 09:08:32;;;;;;;31.13;28.35;;;;;;;33.86;51.17;100416.56;5011912;28;20045;-82
2022/08/20 09:11:05;;;;;;;31.05;28.27;;;;;;;33.55;54.88;100418.44;5006313;28;20075;-85
2022/08/20 09:13:34;;;;;;;31.27;28.40;;;;;;;33.65;54.67;100417.03;5013562;28;20042;-82
2022/08/20 09:16:05;;;;;;;31.17;28.58;;;;;;;33.81;51.85;100414.94;5013051;28;20050;-84
2022/08/20 09:18:33;;;;;;;32.55;29.90;;;;;;;33.80;52.44;100418.03;5011083;28;20048;-83
2022/08/20 09:21:00;;;;;;;31.52;28.50;;;;;;;33.74;54.02;100412.06;5012910;28;20046;-82
2022/08/20 09:23:30;;;;;;;34.28;30.98;;;;;;;34.01;49.72;100412.03;5012015;28;20398;-82
2022/08/20 09:25:59;;;;;;;30.75;28.05;;;;;;;33.58;55.55;100412.22;5003255;28;20053;-85
2022/08/20 09:28:31;;;;;;;29.52;27.02;;;;;;;33.70;55.18;100402.94;5002886;28;20042;-84
2022/08/20 09:30:59;;;;;;;33.92;31.02;;;;;;;33.64;57.34;100398.94;5011584;28;20398;-84
2022/08/20 09:33:27;;;;;;;34.05;31.08;;;;;;;34.25;51.21;100395.06;5013736;28;20046;-82
2022/08/20 09:36:03;;;;;;;34.78;31.50;;;;;;;33.96;55.90;100388.38;5013283;28;20107;-85
2022/08/20 09:38:31;;;;;;;33.17;30.33;;;;;;;33.96;52.53;100388.38;5012874;28;20042;-82
2022/08/20 09:40:59;;;;;;;31.45;28.80;;;;;;;34.41;49.23;100386.63;5012529;28;20050;-84
2022/08/20 09:43:27;;;;;;;33.15;30.70;;;;;;;34.52;52.78;100387.53;5013079;28;20045;-85
2022/08/20 09:45:54;;;;;;;33.47;30.33;;;;;;;34.42;52.06;100386.25;5016589;28;20057;-80
2022/08/20 09:48:23;;;;;;;32.65;30.02;;;;;;;33.63;56.33;100386.34;5016574;28;20038;-81
2022/08/20 09:50:51;;;;;;;31.65;28.67;;;;;;;33.78;53.33;100384.59;5016054;28;20430;-82
2022/08/20 09:53:21;;;;;;;32.78;30.17;;;;;;;33.69;53.27;100373.84;5015890;28;20380;-86
2022/08/20 09:55:52;;;;;;;35.50;32.13;;;;;;;34.20;48.34;100376.94;5016560;28;20093;-81
2022/08/20 09:58:34;;;;;;;33.47;30.63;;;;;;;33.28;59.77;100373.56;5013690;28;20050;-81
2022/08/20 10:01:08;;;;;;;30.08;27.75;;;;;;;33.89;58.79;100367.06;5017085;28;20046;-82
2022/08/20 10:03:35;;;;;;;30.05;27.08;;;;;;;34.50;47.11;100365.06;5016362;28;20057;-83
2022/08/20 10:06:03;;;;;;;63.33;31.92;;;;;;;34.64;50.90;100373.50;5016584;28;20453;-82
2022/08/20 10:08:30;;;;;;;34.15;29.67;;;;;;;33.45;59.79;100375.03;5016088;28;20391;-82
2022/08/20 10:10:57;;;;;;;32.03;29.00;;;;;;;33.39;56.25;100366.28;5016247;28;20060;-81
2022/08/20 10:13:24;;;;;;;29.33;26.83;;;;;;;33.77;54.19;100372.78;5015862;28;20050;-79
2022/08/20 10:15:52;;;;;;;31.35;28.48;;;;;;;34.23;52.39;100358.84;5015705;28;20501;-80
2022/08/20 10:18:19;;;;;;;32.65;29.65;;;;;;;35.92;47.53;100359.22;5016059;28;20050;-82
2022/08/20 10:20:46;;;;;;;33.83;30.67;;;;;;;34.14;51.98;100359.13;5009613;28;20049;-84
2022/08/20 10:23:14;;;;;;;30.70;28.10;;;;;;;34.40;51.11;100349.19;5012370;28;20050;-80
2022/08/20 10:25:42;;;;;;;31.13;28.17;;;;;;;34.03;52.28;100360.97;5015487;28;20046;-83
2022/08/20 10:28:09;;;;;;;31.40;28.75;;;;;;;34.96;47.66;100353.75;5014930;28;20050;-81
2022/08/20 10:30:38;;;;;;;32.53;29.73;;;;;;;34.31;53.69;100348.69;5015789;28;20042;-80
2022/08/20 10:33:06;;;;;;;32.85;28.83;;;;;;;35.17;48.45;100355.13;5016717;28;20406;-81
2022/08/20 10:35:33;;;;;;;34.35;31.10;;;;;;;34.54;49.54;100349.38;5016054;28;20037;-82
2022/08/20 10:38:03;;;;;;;40.78;30.10;;;;;;;34.41;52.32;100348.81;5015687;28;20545;-81
2022/08/20 10:40:31;;;;;;;33.75;30.70;;;;;;;35.58;42.91;100341.25;5015650;28;20053;-81
2022/08/20 10:42:58;;;;;;;34.28;30.30;;;;;;;36.29;40.84;100338.84;5007119;28;20120;-81
2022/08/20 10:45:25;;;;;;;38.40;31.52;;;;;;;36.10;44.85;100336.41;5015187;28;20050;-82
2022/08/20 10:47:53;;;;;;;73.65;32.90;;;;;;;35.88;43.43;100341.00;5015594;28;20478;-81
2022/08/20 10:50:21;;;;;;;38.47;34.03;;;;;;;35.37;44.79;100339.09;5015048;28;20056;-81
2022/08/20 10:52:48;;;;;;;66.05;34.10;;;;;;;34.47;48.71;100346.53;5015839;28;20050;-82
2022/08/20 10:55:15;;;;;;;33.72;30.23;;;;;;;33.94;47.98;100330.91;5011569;28;20414;-81
2022/08/20 10:57:45;;;;;;;49.33;32.65;;;;;;;33.99;47.49;100340.81;5012161;28;20057;-82
2022/08/20 11:00:13;;;;;;;34.80;30.92;;;;;;;33.94;51.68;100330.91;5015155;28;20049;-80
2022/08/20 11:02:40;;;;;;;35.78;33.17;;;;;;;34.45;49.25;100323.25;5014268;28;20068;-81
2022/08/20 11:05:07;;;;;;;42.40;31.83;;;;;;;33.26;51.63;100327.16;5015708;28;20133;-83
2022/08/20 11:07:36;;;;;;;38.22;32.63;;;;;;;33.84;48.36;100319.75;5015372;28;20050;-83
2022/08/20 11:10:05;;;;;;;35.33;31.85;;;;;;;34.11;46.87;100306.75;5008851;28;20057;-82
2022/08/20 11:12:32;;;;;;;33.85;30.95;;;;;;;34.85;44.96;100311.47;5015210;28;20045;-80
2022/08/20 11:15:01;;;;;;;32.28;29.13;;;;;;;35.50;43.24;100321.84;5015451;28;20060;-80
2022/08/20 11:17:30;;;;;;;33.33;30.70;;;;;;;35.43;45.45;100318.25;5009237;28;20049;-82
2022/08/20 11:20:06;;;;;;;32.88;30.23;;;;;;;36.19;48.26;100310.00;5015022;28;20046;-83
2022/08/20 11:22:34;;;;;;;34.20;31.17;;;;;;;35.15;49.21;100308.59;5004167;28;20188;-82
2022/08/20 11:25:00;;;;;;;35.70;32.80;;;;;;;34.64;49.54;100310.09;5011559;28;20060;-82
2022/08/20 11:27:30;;;;;;;36.15;33.05;;;;;;;35.50;49.02;100310.03;5014150;28;20088;-84
2022/08/20 11:29:58;;;;;;;34.47;31.02;;;;;;;34.06;53.84;100305.09;5012889;28;20053;-82
2022/08/20 11:32:27;;;;;;;33.75;31.20;;;;;;;34.08;50.70;100307.50;5008386;28;20578;-83
2022/08/20 11:34:56;;;;;;;35.10;32.33;;;;;;;34.62;49.72;100300.63;5006413;28;20046;-81
2022/08/20 11:37:24;;;;;;;36.58;33.70;;;;;;;34.71;52.99;100301.13;5014316;28;20061;-85
2022/08/20 11:39:51;;;;;;;33.25;30.33;;;;;;;35.28;53.38;100301.59;5014495;28;20046;-81